Scopus, Missouri
Current Conditions -  °F | °C
As of 1:53 AM on Thursday 27 Nov 2014 (Local Time) from KCGI Reporting Station
Overcast Overcast  
Wind Chill: 28°   Ceiling: 2000
Heat Index: 37°   Visibility: 10mi
Dew Point: 32°   Wind: 14mph
Humidity: 82%   Direction: 320°NW
Pressure: 30.23"   Gusts: NA
Location:  37.2968°N, 89.9579°W
Report Text: KCGI 270753Z AUTO 32012KT 10SM OVC020 03/00 A3023 RMK AO2 SLP238 T00280000 TSNO
Loading
Personal Weather Stations






























Interactive Weather Map New forecast layout! Learn more

10-Day Weather Forecast

Advertisements
Track Severe Weather on mobile